Trenel, Argentina
Current Conditions -  °F | °C
As of 9:00 AM on Friday 31 Oct 2014 (Local Time) from SAOC Reporting Station
Overcast Overcast  
Wind Chill: 54°   Ceiling: 4000
Heat Index: 54°   Visibility: 6mi
Dew Point: 52°   Wind: 18mph
Humidity: 94%   Direction: 180°S
Pressure: 30"   Gusts: NA
Location:  35.7°S, 64.13°W
Report Text: SAOC 311200Z 18016KT 9999 SCT015 OVC04012/11 Q1016
Loading
Personal Weather Stations






























Interactive Weather Map
Tropical Storm Tracking
New forecast layout! Learn more

10-Day Weather Forecast

Advertisements
Track Severe Weather on mobile